createdAt,value
2023-03-29T00:02:13.442Z,99857.84
2023-03-29T00:05:02.264Z,99861.41
2023-03-29T00:07:54.524Z,99864.00
2023-03-29T00:10:42.430Z,99850.31
2023-03-29T00:13:29.900Z,99862.63
2023-03-29T00:16:17.606Z,99851.22
2023-03-29T00:19:06.361Z,99861.53
2023-03-29T00:21:53.396Z,99841.66
2023-03-29T00:24:40.608Z,99856.53
2023-03-29T00:27:27.752Z,99852.44
2023-03-29T00:30:15.440Z,99847.03
2023-03-29T00:33:02.564Z,99853.22
2023-03-29T00:35:53.476Z,99867.13
2023-03-29T00:38:40.866Z,99857.66
2023-03-29T00:41:28.139Z,99847.34
2023-03-29T00:44:52.917Z,99865.63
2023-03-29T00:47:43.849Z,99857.84
2023-03-29T00:50:36.535Z,99861.50
2023-03-29T00:53:55.692Z,99860.13
2023-03-29T00:56:46.716Z,99856.97
2023-03-29T00:59:35.742Z,99842.38
2023-03-29T01:02:27.582Z,99850.13
2023-03-29T01:05:24.079Z,99843.25
2023-03-29T01:08:27.756Z,99842.59
2023-03-29T01:11:22.908Z,99834.06
2023-03-29T01:14:30.007Z,99832.25
2023-03-29T01:17:21.901Z,99820.22
2023-03-29T01:20:20.366Z,99830.91
2023-03-29T01:23:14.178Z,99831.72
2023-03-29T01:26:20.346Z,99831.66
2023-03-29T01:29:11.471Z,99823.97
2023-03-29T01:32:07.176Z,99817.13
2023-03-29T01:35:02.717Z,99825.88
2023-03-29T01:37:57.659Z,99824.16
2023-03-29T01:40:44.719Z,99831.31
2023-03-29T01:43:38.740Z,99822.50
2023-03-29T01:46:40.084Z,99830.78
2023-03-29T01:49:42.369Z,99820.22
2023-03-29T01:52:38.258Z,99813.16
2023-03-29T01:55:32.518Z,99804.59
2023-03-29T01:58:23.817Z,99815.38
2023-03-29T02:01:17.766Z,99821.44
2023-03-29T02:04:10.647Z,99801.69
2023-03-29T02:07:00.811Z,99805.22
2023-03-29T02:09:49.064Z,99816.97
2023-03-29T02:12:38.376Z,99804.94
2023-03-29T02:15:25.650Z,99818.09
2023-03-29T02:18:16.585Z,99814.50
2023-03-29T02:21:04.113Z,99791.84
2023-03-29T02:23:54.851Z,99812.72
2023-03-29T02:26:42.240Z,99805.06
2023-03-29T02:29:29.740Z,99813.88
2023-03-29T02:32:25.192Z,99818.97
2023-03-29T02:35:17.158Z,99810.25
2023-03-29T02:38:09.022Z,99816.22
2023-03-29T02:40:58.351Z,99796.94
2023-03-29T02:43:47.780Z,99786.78
2023-03-29T02:46:37.971Z,99798.47
2023-03-29T02:49:25.379Z,99800.19
2023-03-29T02:52:17.526Z,99773.25
2023-03-29T02:55:08.258Z,99788.50
2023-03-29T02:57:55.288Z,99774.59
2023-03-29T03:00:51.225Z,99772.56
2023-03-29T03:03:39.104Z,99779.66
2023-03-29T03:06:26.266Z,99766.00
2023-03-29T03:09:14.721Z,99761.47
2023-03-29T03:12:02.052Z,99772.78
2023-03-29T03:14:49.610Z,99769.06
2023-03-29T03:17:40.181Z,99763.41
2023-03-29T03:20:27.337Z,99748.84
2023-03-29T03:23:14.456Z,99779.66
2023-03-29T03:26:01.679Z,99764.88
2023-03-29T03:28:49.042Z,99764.53
2023-03-29T03:31:36.144Z,99800.28
2023-03-29T03:34:23.336Z,99776.53
2023-03-29T03:37:12.105Z,99771.63
2023-03-29T03:39:59.570Z,99797.97
2023-03-29T03:42:46.967Z,99762.38
2023-03-29T03:45:34.423Z,99745.28
2023-03-29T03:48:22.639Z,99772.91
2023-03-29T03:51:10.281Z,99766.59
2023-03-29T03:53:57.526Z,99712.94
2023-03-29T03:56:44.707Z,99723.53
2023-03-29T03:59:31.845Z,99733.03
2023-03-29T04:02:20.405Z,99729.28
2023-03-29T04:05:08.840Z,99759.94
2023-03-29T04:07:56.296Z,99739.78
2023-03-29T04:10:51.468Z,99744.72
2023-03-29T04:13:38.519Z,99732.53
2023-03-29T04:16:25.814Z,99745.50
2023-03-29T04:19:13.784Z,99754.34
2023-03-29T04:22:00.844Z,99765.22
2023-03-29T04:24:47.891Z,99751.59
2023-03-29T04:27:35.010Z,99727.44
2023-03-29T04:30:22.317Z,99747.88
2023-03-29T04:33:10.477Z,99751.44
2023-03-29T04:35:57.663Z,99733.66
2023-03-29T04:38:47.808Z,99733.72
2023-03-29T04:41:35.469Z,99735.91
2023-03-29T04:44:22.476Z,99728.44
2023-03-29T04:47:13.893Z,99737.13
2023-03-29T04:50:01.737Z,99749.81
2023-03-29T04:52:50.886Z,99752.31
2023-03-29T04:55:38.047Z,99748.28
2023-03-29T04:58:31.461Z,99747.84
2023-03-29T05:01:19.391Z,99748.94
2023-03-29T05:04:06.556Z,99742.41
2023-03-29T05:06:54.166Z,99761.53
2023-03-29T05:09:41.917Z,99734.78
2023-03-29T05:12:29.025Z,99743.53
2023-03-29T05:15:16.233Z,99740.16
2023-03-29T05:18:03.990Z,99735.28
2023-03-29T05:20:53.232Z,99715.34
2023-03-29T05:23:40.359Z,99740.69
2023-03-29T05:26:28.097Z,99733.38
2023-03-29T05:29:15.130Z,99728.25
2023-03-29T05:32:02.514Z,99747.78
2023-03-29T05:34:49.569Z,99729.38
2023-03-29T05:37:37.098Z,99749.19
2023-03-29T05:40:27.087Z,99752.38
2023-03-29T05:43:14.512Z,99737.22
2023-03-29T05:46:01.614Z,99776.31
2023-03-29T05:48:49.020Z,99755.94
2023-03-29T05:51:36.524Z,99759.94
2023-03-29T05:54:24.614Z,99760.72
2023-03-29T05:57:12.158Z,99772.94
2023-03-29T05:59:59.290Z,99770.84
2023-03-29T06:02:47.267Z,99786.22
2023-03-29T06:05:35.798Z,99772.84
2023-03-29T06:08:23.492Z,99766.06
2023-03-29T06:11:12.426Z,99756.63
2023-03-29T06:13:59.471Z,99765.72
2023-03-29T06:16:47.262Z,99782.34
2023-03-29T06:19:34.346Z,99776.78
2023-03-29T06:22:21.443Z,99763.56
2023-03-29T06:25:11.094Z,99757.06
2023-03-29T06:27:58.155Z,99775.91
2023-03-29T06:30:49.443Z,99764.06
2023-03-29T06:33:38.267Z,99768.19
2023-03-29T06:36:26.012Z,99767.41
2023-03-29T06:39:13.306Z,99775.88
2023-03-29T06:42:05.225Z,99766.16
2023-03-29T06:44:57.322Z,99764.84
2023-03-29T06:47:44.439Z,99751.44
2023-03-29T06:50:31.957Z,99767.56
2023-03-29T06:53:19.157Z,99766.91
2023-03-29T06:56:09.646Z,99771.34
2023-03-29T06:58:56.906Z,99769.56
2023-03-29T07:01:45.190Z,99764.34
2023-03-29T07:04:32.582Z,99764.63
2023-03-29T07:07:22.730Z,99762.13
2023-03-29T07:10:10.028Z,99772.03
2023-03-29T07:12:57.444Z,99774.00
2023-03-29T07:15:45.089Z,99767.44
2023-03-29T07:18:32.289Z,99760.22
2023-03-29T07:21:20.582Z,99771.09
2023-03-29T07:24:10.329Z,99762.38
2023-03-29T07:27:04.210Z,99759.75
2023-03-29T07:29:52.329Z,99759.16
2023-03-29T07:32:40.859Z,99761.56
2023-03-29T07:35:28.269Z,99768.94
2023-03-29T07:38:15.796Z,99766.09
2023-03-29T07:41:08.209Z,99760.97
2023-03-29T07:43:55.992Z,99761.53
2023-03-29T07:46:43.444Z,99742.94
2023-03-29T07:49:31.268Z,99757.94
2023-03-29T07:52:18.347Z,99759.84
2023-03-29T07:55:07.305Z,99753.75
2023-03-29T07:57:54.910Z,99755.28
2023-03-29T08:00:43.676Z,99753.84
2023-03-29T08:03:30.827Z,99765.91
2023-03-29T08:06:17.964Z,99759.91
2023-03-29T08:09:05.342Z,99754.28
2023-03-29T08:11:52.448Z,99725.34
2023-03-29T08:14:39.539Z,99749.63
2023-03-29T08:17:26.680Z,99728.63
2023-03-29T08:20:18.233Z,99741.31
2023-03-29T08:23:05.364Z,99741.78
2023-03-29T08:25:52.495Z,99737.88
2023-03-29T08:28:39.647Z,99737.81
2023-03-29T08:31:27.302Z,99748.44
2023-03-29T08:34:14.419Z,99732.22
2023-03-29T08:37:02.197Z,99729.94
2023-03-29T08:39:49.578Z,99734.00
2023-03-29T08:43:05.500Z,99735.41
2023-03-29T08:45:55.621Z,99725.97
2023-03-29T08:48:46.084Z,99729.34
2023-03-29T08:51:38.777Z,99722.63
2023-03-29T08:54:29.347Z,99725.19
2023-03-29T08:57:22.995Z,99723.94
2023-03-29T09:00:21.789Z,99710.75
2023-03-29T09:03:35.028Z,99714.56
2023-03-29T09:06:22.375Z,99713.59
2023-03-29T09:09:19.978Z,99730.94
2023-03-29T09:12:12.935Z,99728.03
2023-03-29T09:15:09.212Z,99727.13
2023-03-29T09:17:56.371Z,99731.91
2023-03-29T09:21:11.379Z,99719.75
2023-03-29T09:24:01.384Z,99722.44
2023-03-29T09:26:54.814Z,99722.88
2023-03-29T09:29:56.449Z,99711.31
2023-03-29T09:32:49.114Z,99709.50
2023-03-29T09:35:41.339Z,99713.63
2023-03-29T09:38:31.351Z,99703.78
2023-03-29T09:41:26.771Z,99710.16
2023-03-29T09:44:30.371Z,99709.84
2023-03-29T09:47:30.301Z,99703.53
2023-03-29T09:50:31.330Z,99704.94
2023-03-29T09:53:21.850Z,99699.28
2023-03-29T09:56:09.367Z,99704.28
2023-03-29T09:58:56.615Z,99704.41
2023-03-29T10:01:46.697Z,99695.88
2023-03-29T10:04:33.794Z,99694.91
2023-03-29T10:07:21.289Z,99696.63
2023-03-29T10:10:10.795Z,99694.34
2023-03-29T10:13:01.838Z,99677.00
2023-03-29T10:16:05.204Z,99686.03
2023-03-29T10:18:54.679Z,99678.75
2023-03-29T10:21:42.462Z,99655.03
2023-03-29T10:24:29.488Z,99636.94
2023-03-29T10:27:24.090Z,99635.19
2023-03-29T10:30:18.917Z,99644.84
2023-03-29T10:33:16.182Z,99653.84
2023-03-29T10:36:06.957Z,99656.56
2023-03-29T10:38:58.639Z,99644.38
2023-03-29T10:41:49.864Z,99640.97
2023-03-29T10:44:36.990Z,99645.69
2023-03-29T10:47:25.110Z,99646.84
2023-03-29T10:50:16.152Z,99643.09
2023-03-29T10:53:06.416Z,99655.78
2023-03-29T10:56:15.522Z,99646.09
2023-03-29T10:59:44.204Z,99641.84
2023-03-29T11:03:08.896Z,99632.75
2023-03-29T11:06:18.316Z,99630.06
2023-03-29T11:09:26.790Z,99619.28
2023-03-29T11:13:05.194Z,99616.03
2023-03-29T11:16:01.800Z,99619.72
2023-03-29T11:19:04.354Z,99616.38
2023-03-29T11:22:17.046Z,99612.28
2023-03-29T11:25:27.735Z,99618.34
2023-03-29T11:28:24.371Z,99617.28
2023-03-29T11:31:32.872Z,99619.34
2023-03-29T11:34:36.834Z,99604.59
2023-03-29T11:37:42.225Z,99604.06
2023-03-29T11:41:17.830Z,99606.84
2023-03-29T11:44:21.276Z,99600.38
2023-03-29T11:47:20.591Z,99599.84
2023-03-29T11:50:19.835Z,99589.22
2023-03-29T11:53:15.007Z,99593.94
2023-03-29T11:56:10.605Z,99598.03
2023-03-29T11:59:08.273Z,99589.28
2023-03-29T12:01:59.974Z,99579.78
2023-03-29T12:04:51.698Z,99563.97
2023-03-29T12:07:54.539Z,99568.50
2023-03-29T12:10:48.235Z,99564.38
2023-03-29T12:13:42.772Z,99562.31
2023-03-29T12:16:29.800Z,99549.19
2023-03-29T12:19:26.466Z,99535.28
2023-03-29T12:22:13.548Z,99538.84
2023-03-29T12:25:03.408Z,99540.88
2023-03-29T12:28:05.414Z,99547.22
2023-03-29T12:31:23.898Z,99538.44
2023-03-29T12:34:35.117Z,99531.88
2023-03-29T12:37:36.255Z,99537.22
2023-03-29T12:40:27.767Z,99526.03
2023-03-29T12:43:25.114Z,99515.50
2023-03-29T12:46:27.694Z,99501.47
2023-03-29T12:49:27.260Z,99502.25
2023-03-29T12:52:23.467Z,99498.25
2023-03-29T12:55:32.375Z,99492.97
2023-03-29T12:58:40.586Z,99502.44
2023-03-29T13:01:34.154Z,99497.69
2023-03-29T13:04:38.044Z,99478.19
2023-03-29T13:07:28.071Z,99488.63
2023-03-29T13:10:35.702Z,99487.06
2023-03-29T13:13:29.823Z,99487.53
2023-03-29T13:16:21.781Z,99482.25
2023-03-29T13:19:36.158Z,99479.19
2023-03-29T13:23:10.959Z,99474.31
2023-03-29T13:26:11.530Z,99464.59
2023-03-29T13:29:02.582Z,99464.03
2023-03-29T13:32:05.572Z,99460.59
2023-03-29T13:35:11.825Z,99448.00
2023-03-29T13:38:31.917Z,99459.97
2023-03-29T13:41:24.982Z,99449.81
2023-03-29T13:44:39.350Z,99451.97
2023-03-29T13:47:27.815Z,99439.72
2023-03-29T13:50:19.740Z,99430.91
2023-03-29T13:53:15.844Z,99419.50
2023-03-29T13:56:05.821Z,99431.94
2023-03-29T13:59:05.854Z,99421.91
2023-03-29T14:01:58.141Z,99369.06
2023-03-29T14:04:48.658Z,99366.84
2023-03-29T14:07:39.468Z,99398.84
2023-03-29T14:10:32.430Z,99412.56
2023-03-29T14:13:23.302Z,99416.22
2023-03-29T14:16:12.089Z,99400.41
2023-03-29T14:19:02.419Z,99404.09
2023-03-29T14:21:52.383Z,99407.63
2023-03-29T14:24:49.855Z,99394.34
2023-03-29T14:27:37.588Z,99395.31
2023-03-29T14:30:29.717Z,99360.75
2023-03-29T14:33:31.354Z,99377.94
2023-03-29T14:36:18.693Z,99354.69
2023-03-29T14:39:18.830Z,99376.41
2023-03-29T14:42:10.989Z,99388.81
2023-03-29T14:45:04.381Z,99368.75
2023-03-29T14:47:52.147Z,99347.88
2023-03-29T14:50:40.228Z,99366.63
2023-03-29T14:53:30.799Z,99349.16
2023-03-29T14:56:21.424Z,99354.81
2023-03-29T14:59:23.979Z,99356.59
2023-03-29T15:02:32.586Z,99350.09
2023-03-29T15:05:35.428Z,99315.81
2023-03-29T15:08:37.965Z,99350.75
2023-03-29T15:11:30.862Z,99331.19
2023-03-29T15:14:20.130Z,99340.56
2023-03-29T15:17:23.220Z,99347.72
2023-03-29T15:20:24.801Z,99342.38
2023-03-29T15:23:14.951Z,99341.97
2023-03-29T15:26:20.901Z,99292.59
2023-03-29T15:29:14.901Z,99320.72
2023-03-29T15:32:02.509Z,99323.56
2023-03-29T15:35:02.249Z,99307.28
2023-03-29T15:37:50.349Z,99311.91
2023-03-29T15:40:37.656Z,99317.84
2023-03-29T15:43:25.875Z,99315.03
2023-03-29T15:46:16.648Z,99307.25
2023-03-29T15:49:05.179Z,99307.34
2023-03-29T15:51:54.124Z,99318.03
2023-03-29T15:54:41.616Z,99294.09
2023-03-29T15:57:29.153Z,99296.88
2023-03-29T16:00:18.988Z,99292.34
2023-03-29T16:03:07.108Z,99312.13
2023-03-29T16:05:56.974Z,99285.34
2023-03-29T16:08:44.124Z,99308.09
2023-03-29T16:11:31.313Z,99289.88
2023-03-29T16:14:27.457Z,99314.16
2023-03-29T16:17:16.091Z,99308.38
2023-03-29T16:20:05.281Z,99304.56
2023-03-29T16:22:54.330Z,99304.44
2023-03-29T16:25:41.620Z,99312.19
2023-03-29T16:28:28.778Z,99315.69
2023-03-29T16:31:15.984Z,99302.56
2023-03-29T16:34:04.391Z,99296.50
2023-03-29T16:36:53.129Z,99285.06
2023-03-29T16:39:40.648Z,99309.88
2023-03-29T16:42:27.836Z,99318.78
2023-03-29T16:45:15.564Z,99308.78
2023-03-29T16:48:02.884Z,99313.69
2023-03-29T16:50:50.279Z,99322.44
2023-03-29T16:53:38.211Z,99318.44
2023-03-29T16:56:28.427Z,99325.25
2023-03-29T16:59:15.601Z,99311.53
2023-03-29T17:02:03.085Z,99311.34
2023-03-29T17:04:51.256Z,99312.22
2023-03-29T17:07:40.360Z,99315.97
2023-03-29T17:10:27.512Z,99307.91
2023-03-29T17:13:14.846Z,99309.44
2023-03-29T17:16:02.993Z,99292.28
2023-03-29T17:18:50.938Z,99293.53
2023-03-29T17:21:39.687Z,99279.22
2023-03-29T17:24:27.417Z,99295.66
2023-03-29T17:27:15.045Z,99306.75
2023-03-29T17:30:02.590Z,99273.59
2023-03-29T17:32:50.011Z,99300.09
2023-03-29T17:35:46.197Z,99298.09
2023-03-29T17:38:34.697Z,99296.91
2023-03-29T17:41:23.052Z,99313.75
2023-03-29T17:44:12.736Z,99332.16
2023-03-29T17:47:02.778Z,99321.13
2023-03-29T17:49:50.175Z,99327.88
2023-03-29T17:52:42.260Z,99327.59
2023-03-29T17:55:30.174Z,99319.63
2023-03-29T17:58:18.122Z,99334.31
2023-03-29T18:01:10.309Z,99335.09
2023-03-29T18:03:58.380Z,99316.41
2023-03-29T18:06:47.250Z,99320.59
2023-03-29T18:09:35.195Z,99343.22
2023-03-29T18:12:26.442Z,99322.47
2023-03-29T18:15:14.026Z,99328.81
2023-03-29T18:18:01.914Z,99333.25
2023-03-29T18:20:49.479Z,99333.91
2023-03-29T18:23:40.545Z,99347.91
2023-03-29T18:26:29.132Z,99343.53
2023-03-29T18:29:16.912Z,99339.31
2023-03-29T18:32:05.587Z,99347.34
2023-03-29T18:34:54.777Z,99351.00
2023-03-29T18:37:42.831Z,99348.59
2023-03-29T18:40:30.761Z,99359.34
2023-03-29T18:43:19.112Z,99340.91
2023-03-29T18:46:08.291Z,99361.84
2023-03-29T18:48:57.520Z,99359.19
2023-03-29T18:51:46.925Z,99364.84
2023-03-29T18:54:35.013Z,99371.25
2023-03-29T18:57:22.946Z,99357.13
2023-03-29T19:00:12.156Z,99376.81
2023-03-29T19:02:59.600Z,99377.81
2023-03-29T19:05:53.314Z,99379.84
2023-03-29T19:08:42.192Z,99378.13
2023-03-29T19:11:30.578Z,99366.88
2023-03-29T19:14:23.619Z,99389.63
2023-03-29T19:17:11.196Z,99386.97
2023-03-29T19:19:59.996Z,99382.34
2023-03-29T19:22:48.700Z,99372.41
2023-03-29T19:25:37.162Z,99395.72
2023-03-29T19:28:25.723Z,99366.59
2023-03-29T19:31:13.950Z,99377.97
2023-03-29T19:34:02.413Z,99377.88
2023-03-29T19:36:51.229Z,99382.09
2023-03-29T19:39:41.587Z,99362.69
2023-03-29T19:42:29.611Z,99376.41
2023-03-29T19:45:17.497Z,99376.03
2023-03-29T19:48:05.631Z,99374.94
2023-03-29T19:50:54.260Z,99376.28
2023-03-29T19:53:42.314Z,99382.13
2023-03-29T19:56:29.744Z,99379.44
2023-03-29T19:59:18.253Z,99394.38
2023-03-29T20:02:07.381Z,99349.75
2023-03-29T20:04:57.949Z,99366.47
2023-03-29T20:07:45.687Z,99362.84
2023-03-29T20:10:34.190Z,99369.41
2023-03-29T20:13:31.460Z,99367.59
2023-03-29T20:16:26.205Z,99365.72
2023-03-29T20:19:17.948Z,99356.91
2023-03-29T20:22:05.796Z,99355.19
2023-03-29T20:24:53.269Z,99347.28
2023-03-29T20:27:43.227Z,99332.97
2023-03-29T20:30:30.585Z,99342.09
2023-03-29T20:33:18.638Z,99342.78
2023-03-29T20:36:06.910Z,99326.31
2023-03-29T20:38:56.349Z,99327.16
2023-03-29T20:41:47.885Z,99329.56
2023-03-29T20:44:35.466Z,99334.03
2023-03-29T20:47:23.609Z,99328.84
2023-03-29T20:50:11.019Z,99333.34
2023-03-29T20:53:02.290Z,99332.53
2023-03-29T20:55:49.440Z,99340.75
2023-03-29T20:58:41.943Z,99326.53
2023-03-29T21:01:30.417Z,99321.53
2023-03-29T21:04:17.971Z,99328.47
2023-03-29T21:07:08.378Z,99332.69
2023-03-29T21:09:55.405Z,99324.31
2023-03-29T21:12:43.432Z,99318.78
2023-03-29T21:15:31.224Z,99315.91
2023-03-29T21:18:18.368Z,99312.19
2023-03-29T21:21:07.313Z,99317.31
2023-03-29T21:23:54.402Z,99316.22
2023-03-29T21:26:42.193Z,99316.34
2023-03-29T21:29:29.429Z,99313.22
2023-03-29T21:32:16.669Z,99304.19
2023-03-29T21:35:04.138Z,99316.03
2023-03-29T21:37:51.350Z,99299.69
2023-03-29T21:40:39.091Z,99306.09
2023-03-29T21:43:26.232Z,99307.25
2023-03-29T21:46:13.764Z,99301.09
2023-03-29T21:49:01.005Z,99298.75
2023-03-29T21:51:48.095Z,99296.78
2023-03-29T21:54:35.307Z,99287.00
2023-03-29T21:57:22.537Z,99299.88
2023-03-29T22:00:11.386Z,99298.47
2023-03-29T22:02:58.903Z,99298.81
2023-03-29T22:05:59.603Z,99291.56
2023-03-29T22:08:49.598Z,99281.78
2023-03-29T22:11:38.699Z,99272.75
2023-03-29T22:14:25.753Z,99275.41
2023-03-29T22:17:13.645Z,99266.47
2023-03-29T22:20:00.832Z,99283.69
2023-03-29T22:22:50.099Z,99282.84
2023-03-29T22:25:37.314Z,99269.66
2023-03-29T22:28:24.495Z,99271.16
2023-03-29T22:31:15.110Z,99275.50
2023-03-29T22:34:02.917Z,99275.41
2023-03-29T22:36:49.951Z,99269.00
2023-03-29T22:39:37.554Z,99263.81
2023-03-29T22:42:24.696Z,99264.75
2023-03-29T22:45:11.864Z,99274.22
2023-03-29T22:47:58.965Z,99250.31
2023-03-29T22:50:47.358Z,99260.31
2023-03-29T22:53:34.580Z,99252.88
2023-03-29T22:56:22.126Z,99253.06
2023-03-29T22:59:09.593Z,99260.47
2023-03-29T23:03:31.619Z,99257.00
2023-03-29T23:06:19.000Z,99254.25
2023-03-29T23:09:06.089Z,99255.16
2023-03-29T23:11:53.211Z,99251.03
2023-03-29T23:14:42.901Z,99252.84
2023-03-29T23:17:30.424Z,99246.91
2023-03-29T23:20:17.866Z,99238.28
2023-03-29T23:23:04.898Z,99243.81
2023-03-29T23:25:53.432Z,99249.81
2023-03-29T23:28:41.175Z,99239.38
2023-03-29T23:31:28.454Z,99230.25
2023-03-29T23:34:15.518Z,99238.91
2023-03-29T23:37:02.628Z,99245.72
2023-03-29T23:39:49.659Z,99244.91
2023-03-29T23:42:37.331Z,99234.63
2023-03-29T23:45:26.798Z,99220.69
2023-03-29T23:48:14.201Z,99216.75
2023-03-29T23:51:02.827Z,99221.03
2023-03-29T23:53:50.255Z,99216.81
2023-03-29T23:56:37.484Z,99211.41
2023-03-29T23:59:29.010Z,99218.41
